Gulf Breeze, FL (32561)

8:54 AM CDT on July 27, 2016 (GMT -0500)
Soundside | | Change Station
Active Advisory: Coastal Hazard Statement

Elev 12 ft 30.38 °N, 87.02 °W | Updated 1 second ago

Clear
Clear
85.9 °F
Feels Like 93 °F
N
8.9
Wind Variable Wind from South
Gusts 10.0 mph

Today
High -- | Low -- °F
--% Chance of Precip.
Yesterday
High -- | Low -- °F
Precip. -- in
Pressure 30.05 in
Visibility 10.0 miles
Clouds Clear
Heat Index 93 °F
Dew Point 73 °F
Humidity 66%
Rainfall 0.00 in
Snow Depth Not available.
6:03 AM 7:45 PM
Last Quarter, 43% visible
METAR KPNS 271253Z 20004KT 10SM CLR 29/23 A3005 RMK AO2 SLP175 T02890233
Pressure 30.05 in
Visibility 10.0 miles
Clouds Clear
Heat Index 93 °F
Dew Point 73 °F
Humidity 66%
Rainfall 0.00 in
Snow Depth Not available.
6:03 AM 7:45 PM
Last Quarter, 43% visible
METAR KPNS 271253Z 20004KT 10SM CLR 29/23 A3005 RMK AO2 SLP175 T02890233

10-Day Weather Forecast

Almanac

Astronomy

Jul. 27, 2016 Rise Set
Actual Time
Civil Twilight
Nautical Twilight
Astronomical Twilight
Moon
Length of Visible Light
Length of Day
Tomorrow will be .
, % of the Moon is Illuminated

Today's Extremes

State Highs State Lows

Community

WunderPhotos

Upload Photos

1,927,844 photos uploaded!

WunderBlog® & News

Nearby

Air Quality

  Air Quality AQ Index Pollutant
Not available.

Snow Depth

Station Depth Elevation

Earthquake Activity

City Distance Mag. Time & Date
Minimum magnitude displayed is 2.5.

Coastal Water Temperatures

Place Temperature

Stations

Nearby Weather Stations

Station Location Temp. Windchill Dew Point Humidity Wind Precip. Elev Updated Type
                   

Watches & Warnings

Coastal Hazard Statement
Issued: 5:46 AM CDT Jul. 27, 2016 – National Weather Service

... High rip current risk now in effect through this afternoon...

* timing... through late this afternoon.

* Impacts... frequent life-threatening rip currents are expected.
The surf is dangerous for all levels of swimmers.

Precautionary/preparedness actions...

There is a high risk of rip currents.

Rip currents are life-threatening to anyone entering the surf. If
you become caught in a rip current... Yell for help. Remain
calm... do not exhaust yourself and stay afloat while waiting for
help. If you have to swim out of a rip current... swim parallel
to shore and back toward the beach when possible. Do not attempt
to swim directly against a rip current as you will tire quickly.